createdAt,value
2024-04-24T13:31:05.619Z,18.91
2024-04-24T13:33:34.575Z,18.84
2024-04-24T13:36:01.919Z,18.81
2024-04-24T13:38:28.971Z,18.80
2024-04-24T13:41:02.718Z,18.80
2024-04-24T13:43:29.700Z,18.81
2024-04-24T13:45:56.753Z,18.83
2024-04-24T13:48:23.848Z,18.85
2024-04-24T13:50:51.186Z,18.87
2024-04-24T13:53:18.272Z,18.90
2024-04-24T13:55:45.261Z,18.92
2024-04-24T13:58:12.397Z,18.95
2024-04-24T14:00:39.494Z,18.98
2024-04-24T14:03:06.608Z,19.01
2024-04-24T14:05:34.177Z,19.05
2024-04-24T14:08:01.276Z,19.07
2024-04-24T14:10:28.371Z,19.09
2024-04-24T14:12:55.351Z,19.12
2024-04-24T14:15:22.527Z,19.14
2024-04-24T14:17:49.568Z,19.15
2024-04-24T14:20:16.632Z,19.16
2024-04-24T14:22:43.618Z,19.17
2024-04-24T14:25:10.648Z,19.18
2024-04-24T14:27:37.737Z,19.19
2024-04-24T14:30:05.159Z,19.20
2024-04-24T14:32:32.243Z,19.22
2024-04-24T14:34:59.393Z,19.23
2024-04-24T14:37:26.383Z,19.23
2024-04-24T14:39:53.318Z,19.24
2024-04-24T14:42:22.202Z,19.26
2024-04-24T14:44:49.243Z,19.27
2024-04-24T14:47:17.917Z,19.29
2024-04-24T14:49:45.926Z,19.29
2024-04-24T14:52:15.343Z,19.29
2024-04-24T14:54:42.311Z,19.28
2024-04-24T14:57:10.449Z,19.26
2024-04-24T14:59:37.727Z,19.24
2024-04-24T15:02:04.983Z,19.23
2024-04-24T15:04:32.176Z,19.23
2024-04-24T15:07:08.442Z,19.23
2024-04-24T15:09:35.785Z,19.23
2024-04-24T15:12:03.197Z,19.23
2024-04-24T15:14:30.751Z,19.23
2024-04-24T15:16:57.955Z,19.23
2024-04-24T15:19:25.011Z,19.23
2024-04-24T15:21:52.146Z,19.24
2024-04-24T15:24:19.174Z,19.24
2024-04-24T15:26:46.188Z,19.25
2024-04-24T15:29:13.217Z,19.25
2024-04-24T15:31:40.310Z,19.24
2024-04-24T15:34:07.355Z,19.25
2024-04-24T15:36:34.380Z,19.25
2024-04-24T15:39:04.074Z,19.26
2024-04-24T15:41:31.128Z,19.26
2024-04-24T15:43:58.338Z,19.26
2024-04-24T15:46:25.398Z,19.26
2024-04-24T15:48:52.627Z,19.26
2024-04-24T15:51:19.757Z,19.26
2024-04-24T15:53:46.764Z,19.26
2024-04-24T15:56:17.167Z,19.26
2024-04-24T15:58:44.336Z,19.24
2024-04-24T16:01:11.589Z,19.25
